createdAt,value
2022-07-26T00:01:32.081Z,95436.38
2022-07-26T00:04:34.019Z,95439.53
2022-07-26T00:07:36.384Z,95438.00
2022-07-26T00:10:39.526Z,95438.47
2022-07-26T00:13:41.697Z,95447.00
2022-07-26T00:16:44.869Z,95443.88
2022-07-26T00:19:46.582Z,95446.19
2022-07-26T00:22:48.258Z,95447.41
2022-07-26T00:25:50.681Z,95453.13
2022-07-26T00:28:52.341Z,95463.13
2022-07-26T00:31:58.398Z,95464.91
2022-07-26T00:35:00.222Z,95462.84
2022-07-26T00:38:01.885Z,95457.69
2022-07-26T00:41:04.440Z,95462.72
2022-07-26T00:44:06.212Z,95445.41
2022-07-26T00:47:09.379Z,95448.66
2022-07-26T00:50:12.184Z,95453.66
2022-07-26T00:53:13.912Z,95446.19
2022-07-26T00:56:16.207Z,95454.09
2022-07-26T00:59:17.847Z,95449.19
2022-07-26T01:02:20.980Z,95455.53
2022-07-26T01:05:24.091Z,95443.59
2022-07-26T01:08:25.786Z,95442.28
2022-07-26T01:11:27.454Z,95443.16
2022-07-26T01:14:29.199Z,95433.41
2022-07-26T01:17:32.314Z,95426.72
2022-07-26T01:20:38.311Z,95427.13
2022-07-26T01:23:41.377Z,95434.22
2022-07-26T01:26:43.079Z,95426.13
2022-07-26T01:29:44.859Z,95431.63
2022-07-26T01:32:46.536Z,95430.16
2022-07-26T01:35:48.204Z,95431.66
2022-07-26T01:38:51.303Z,95419.00
2022-07-26T01:41:53.206Z,95425.69
2022-07-26T01:44:54.902Z,95414.06
2022-07-26T01:47:56.587Z,95416.47
2022-07-26T01:50:58.237Z,95402.97
2022-07-26T01:54:01.508Z,95394.00
2022-07-26T01:57:03.451Z,95392.66
2022-07-26T02:00:05.701Z,95393.59
2022-07-26T02:03:07.438Z,95381.50
2022-07-26T02:06:09.386Z,95364.81
2022-07-26T02:09:15.617Z,95357.38
2022-07-26T02:12:17.308Z,95358.59
2022-07-26T02:15:19.000Z,95346.41
2022-07-26T02:18:20.651Z,95338.03
2022-07-26T02:21:22.312Z,95341.84
2022-07-26T02:24:25.748Z,95337.44
2022-07-26T02:27:27.494Z,95330.28
2022-07-26T02:30:29.204Z,95336.69
2022-07-26T02:33:30.881Z,95347.97
2022-07-26T02:36:32.629Z,95341.63
2022-07-26T02:39:35.682Z,95342.38
2022-07-26T02:42:37.340Z,95334.94
2022-07-26T02:45:39.210Z,95332.78
2022-07-26T02:48:40.927Z,95320.88
2022-07-26T02:51:42.764Z,95308.81
2022-07-26T02:54:45.869Z,95306.53
2022-07-26T02:57:47.711Z,95314.75
2022-07-26T03:00:49.377Z,95324.69
2022-07-26T03:03:51.321Z,95297.06
2022-07-26T03:06:53.021Z,95311.56
2022-07-26T03:09:56.085Z,95313.25
2022-07-26T03:12:57.737Z,95314.91
2022-07-26T03:15:59.498Z,95315.22
2022-07-26T03:19:01.497Z,95303.75
2022-07-26T03:22:03.199Z,95304.22
2022-07-26T03:25:06.554Z,95303.47
2022-07-26T03:28:08.241Z,95297.66
2022-07-26T03:31:11.129Z,95290.34
2022-07-26T03:34:12.850Z,95282.72
2022-07-26T03:37:14.513Z,95286.06
2022-07-26T03:40:17.923Z,95277.53
2022-07-26T03:43:22.996Z,95280.69
2022-07-26T03:46:25.034Z,95298.56
2022-07-26T03:49:26.815Z,95303.75
2022-07-26T03:52:28.553Z,95303.75
2022-07-26T03:55:31.619Z,95303.31
2022-07-26T03:58:33.318Z,95297.97
2022-07-26T04:01:35.540Z,95302.69
2022-07-26T04:04:37.328Z,95306.38
2022-07-26T04:07:42.704Z,95304.22
2022-07-26T04:10:46.818Z,95295.50
2022-07-26T04:13:48.482Z,95294.44
2022-07-26T04:16:50.193Z,95293.84
2022-07-26T04:19:51.893Z,95293.69
2022-07-26T04:22:53.564Z,95289.75
2022-07-26T04:25:56.757Z,95288.22
2022-07-26T04:28:58.417Z,95295.84
2022-07-26T04:32:00.102Z,95290.66
2022-07-26T04:35:02.064Z,95290.66
2022-07-26T04:38:04.784Z,95286.06
2022-07-26T04:41:07.910Z,95285.47
2022-07-26T04:44:10.118Z,95292.75
2022-07-26T04:47:12.143Z,95291.41
2022-07-26T04:50:13.799Z,95282.41
2022-07-26T04:53:17.075Z,95293.09
2022-07-26T04:56:20.145Z,95287.13
2022-07-26T04:59:22.167Z,95286.66
2022-07-26T05:02:24.088Z,95286.66
2022-07-26T05:05:26.793Z,95284.84
2022-07-26T05:08:28.631Z,95299.50
2022-07-26T05:11:31.648Z,95283.91
2022-07-26T05:14:33.333Z,95294.28
2022-07-26T05:17:37.684Z,95297.38
2022-07-26T05:20:41.703Z,95299.78
2022-07-26T05:23:43.427Z,95295.69
2022-07-26T05:26:46.454Z,95298.44
2022-07-26T05:29:48.124Z,95291.28
2022-07-26T05:32:49.787Z,95293.56
2022-07-26T05:35:51.444Z,95284.69
2022-07-26T05:38:53.089Z,95290.81
2022-07-26T05:41:56.134Z,95293.94
2022-07-26T05:44:57.874Z,95289.97
2022-07-26T05:47:59.671Z,95293.72
2022-07-26T05:51:01.329Z,95291.75
2022-07-26T05:54:03.066Z,95294.00
2022-07-26T05:57:06.274Z,95305.25
2022-07-26T06:00:08.927Z,95300.75
2022-07-26T06:03:10.630Z,95312.94
2022-07-26T06:06:12.395Z,95315.22
2022-07-26T06:09:14.091Z,95311.63
2022-07-26T06:12:17.184Z,95315.88
2022-07-26T06:15:18.865Z,95316.66
2022-07-26T06:18:20.645Z,95312.25
2022-07-26T06:21:22.307Z,95309.16
2022-07-26T06:24:23.998Z,95315.44
2022-07-26T06:27:27.117Z,95309.34
2022-07-26T06:30:28.840Z,95316.34
2022-07-26T06:33:30.887Z,95313.91
2022-07-26T06:36:32.551Z,95317.06
2022-07-26T06:39:34.254Z,95320.88
2022-07-26T06:42:37.800Z,95316.34
2022-07-26T06:45:39.574Z,95316.38
2022-07-26T06:48:41.324Z,95315.94
2022-07-26T06:51:49.290Z,95317.91
2022-07-26T06:54:50.969Z,95317.34
2022-07-26T06:57:54.022Z,95317.53
2022-07-26T07:00:55.802Z,95319.06
2022-07-26T07:03:57.559Z,95311.44
2022-07-26T07:06:59.795Z,95320.47
2022-07-26T07:10:03.795Z,95326.00
2022-07-26T07:13:07.358Z,95319.28
2022-07-26T07:16:09.232Z,95318.97
2022-07-26T07:19:10.942Z,95325.81
2022-07-26T07:22:12.904Z,95323.41
2022-07-26T07:25:14.934Z,95326.59
2022-07-26T07:28:18.111Z,95324.59
2022-07-26T07:31:21.990Z,95313.94
2022-07-26T07:34:31.732Z,95318.19
2022-07-26T07:37:52.344Z,95317.41
2022-07-26T07:40:54.925Z,95322.59
2022-07-26T07:43:58.034Z,95327.03
2022-07-26T07:46:59.802Z,95324.16
2022-07-26T07:50:01.674Z,95330.31
2022-07-26T07:53:03.334Z,95328.75
2022-07-26T07:56:05.317Z,95338.03
2022-07-26T07:59:09.239Z,95338.38
2022-07-26T08:02:11.119Z,95342.94
2022-07-26T08:05:15.237Z,95337.75
2022-07-26T08:08:17.608Z,95332.69
2022-07-26T08:11:19.382Z,95350.88
2022-07-26T08:14:22.515Z,95344.16
2022-07-26T08:17:24.395Z,95340.34
2022-07-26T08:20:28.546Z,95329.66
2022-07-26T08:23:32.590Z,95337.13
2022-07-26T08:26:34.328Z,95341.84
2022-07-26T08:29:37.421Z,95345.84
2022-07-26T08:32:39.104Z,95340.34
2022-07-26T08:35:40.786Z,95343.38
2022-07-26T08:38:42.613Z,95346.44
2022-07-26T08:41:44.281Z,95352.88
2022-07-26T08:44:47.650Z,95352.72
2022-07-26T08:48:15.123Z,95354.22
2022-07-26T08:51:11.358Z,95356.84
2022-07-26T08:54:14.737Z,95352.13
2022-07-26T08:57:16.679Z,95362.25
2022-07-26T09:00:21.067Z,95366.78
2022-07-26T09:03:24.546Z,95361.91
2022-07-26T09:06:28.371Z,95372.59
2022-07-26T09:09:30.886Z,95381.47
2022-07-26T09:12:33.110Z,95386.19
2022-07-26T09:15:36.234Z,95371.69
2022-07-26T09:18:37.915Z,95381.75
2022-07-26T09:21:39.600Z,95380.41
2022-07-26T09:24:42.202Z,95381.81
2022-07-26T09:27:43.961Z,95386.81
2022-07-26T09:30:51.595Z,95392.63
2022-07-26T09:33:53.417Z,95390.78
2022-07-26T09:36:55.698Z,95394.91
2022-07-26T09:39:59.025Z,95388.34
2022-07-26T09:43:01.558Z,95389.41
2022-07-26T09:46:05.623Z,95395.97
2022-07-26T09:49:16.364Z,95400.38
2022-07-26T09:52:19.234Z,95399.63
2022-07-26T09:55:21.101Z,95409.56
2022-07-26T09:58:23.527Z,95409.13
2022-07-26T10:01:26.660Z,95408.34
2022-07-26T10:04:28.392Z,95408.97
2022-07-26T10:07:30.320Z,95417.03
2022-07-26T10:10:36.752Z,95419.94
2022-07-26T10:13:38.592Z,95416.13
2022-07-26T10:16:41.627Z,95418.72
2022-07-26T10:19:45.716Z,95415.19
2022-07-26T10:22:49.705Z,95413.81
2022-07-26T10:25:51.469Z,95406.81
2022-07-26T10:28:53.143Z,95406.53
2022-07-26T10:32:15.282Z,95410.03
2022-07-26T10:35:29.616Z,95415.38
2022-07-26T10:38:31.345Z,95413.09
2022-07-26T10:41:33.841Z,95416.91
2022-07-26T10:44:36.811Z,95421.00
2022-07-26T10:47:59.814Z,95418.22
2022-07-26T10:51:06.164Z,95416.31
2022-07-26T10:54:09.654Z,95424.13
2022-07-26T10:57:11.618Z,95423.50
2022-07-26T11:00:15.240Z,95417.53
2022-07-26T11:03:18.365Z,95423.09
2022-07-26T11:06:27.045Z,95419.47
2022-07-26T11:09:33.705Z,95424.81
2022-07-26T11:12:35.381Z,95432.94
2022-07-26T11:15:38.334Z,95428.19
2022-07-26T11:18:41.436Z,95423.16
2022-07-26T11:21:43.841Z,95433.56
2022-07-26T11:24:45.548Z,95432.19
2022-07-26T11:27:58.493Z,95433.56
2022-07-26T11:31:00.546Z,95426.06
2022-07-26T11:34:08.347Z,95424.56
2022-07-26T11:37:13.331Z,95414.81
2022-07-26T11:40:14.996Z,95415.25
2022-07-26T11:43:16.710Z,95412.19
2022-07-26T11:46:19.177Z,95417.69
2022-07-26T11:49:41.356Z,95416.44
2022-07-26T11:52:45.139Z,95428.78
2022-07-26T11:55:47.576Z,95423.63
2022-07-26T11:58:50.485Z,95416.00
2022-07-26T12:01:52.863Z,95418.13
2022-07-26T12:05:10.043Z,95424.13
2022-07-26T12:08:13.213Z,95415.56
2022-07-26T12:11:15.441Z,95414.81
2022-07-26T12:14:24.767Z,95421.97
2022-07-26T12:17:26.710Z,95429.28
2022-07-26T12:20:36.315Z,95410.78
2022-07-26T12:23:47.135Z,95417.38
2022-07-26T12:27:03.674Z,95402.41
2022-07-26T12:30:15.083Z,95401.81
2022-07-26T12:33:16.950Z,95408.06
2022-07-26T12:36:28.332Z,95408.81
2022-07-26T12:39:32.156Z,95417.97
2022-07-26T12:42:34.837Z,95411.09
2022-07-26T12:45:36.645Z,95410.19
2022-07-26T12:48:38.379Z,95417.53
2022-07-26T12:51:40.133Z,95417.53
2022-07-26T12:54:44.003Z,95409.88
2022-07-26T12:57:47.530Z,95400.91
2022-07-26T13:00:49.688Z,95413.44
2022-07-26T13:03:51.347Z,95398.16
2022-07-26T13:06:53.087Z,95392.19
2022-07-26T13:10:29.895Z,95383.94
2022-07-26T13:13:18.227Z,95392.38
2022-07-26T13:16:20.215Z,95385.63
2022-07-26T13:19:21.952Z,95388.03
2022-07-26T13:22:23.738Z,95376.41
2022-07-26T13:25:29.029Z,95374.56
2022-07-26T13:28:35.759Z,95383.81
2022-07-26T13:31:37.498Z,95375.25
2022-07-26T13:34:39.353Z,95376.63
2022-07-26T13:37:43.648Z,95368.19
2022-07-26T13:40:46.755Z,95367.41
2022-07-26T13:43:51.796Z,95358.72
2022-07-26T13:46:53.650Z,95364.03
2022-07-26T13:49:55.396Z,95372.38
2022-07-26T13:52:57.327Z,95367.75
2022-07-26T13:56:00.663Z,95362.72
2022-07-26T13:59:02.360Z,95368.00
2022-07-26T14:02:04.481Z,95367.13
2022-07-26T14:05:06.567Z,95357.97
2022-07-26T14:08:08.233Z,95350.69
2022-07-26T14:11:11.279Z,95357.16
2022-07-26T14:14:13.507Z,95355.94
2022-07-26T14:17:15.610Z,95358.72
2022-07-26T14:20:17.472Z,95358.81
2022-07-26T14:23:19.344Z,95355.31
2022-07-26T14:26:22.498Z,95364.06
2022-07-26T14:29:24.159Z,95367.09
2022-07-26T14:32:25.922Z,95365.59
2022-07-26T14:35:27.666Z,95369.28
2022-07-26T14:38:30.087Z,95362.81
2022-07-26T14:41:33.362Z,95369.16
2022-07-26T14:44:35.832Z,95364.56
2022-07-26T14:47:46.498Z,95365.72
2022-07-26T14:51:08.583Z,95377.53
2022-07-26T14:54:10.146Z,95366.84
2022-07-26T14:57:13.374Z,95370.94
2022-07-26T15:00:16.094Z,95360.47
2022-07-26T15:03:17.843Z,95362.72
2022-07-26T15:06:19.531Z,95374.03
2022-07-26T15:09:21.185Z,95363.00
2022-07-26T15:12:24.917Z,95348.09
2022-07-26T15:15:27.121Z,95356.53
2022-07-26T15:18:28.919Z,95348.84
2022-07-26T15:21:30.606Z,95345.28
2022-07-26T15:24:35.249Z,95340.97
2022-07-26T15:27:42.548Z,95333.75
2022-07-26T15:30:44.239Z,95331.69
2022-07-26T15:33:47.019Z,95336.13
2022-07-26T15:36:48.912Z,95342.31
2022-07-26T15:39:51.980Z,95340.78
2022-07-26T15:42:55.086Z,95345.72
2022-07-26T15:45:58.030Z,95345.69
2022-07-26T15:49:01.627Z,95349.78
2022-07-26T15:52:03.482Z,95343.53
2022-07-26T15:55:05.658Z,95348.03
2022-07-26T15:58:08.796Z,95345.44
2022-07-26T16:01:10.688Z,95347.38
2022-07-26T16:04:12.837Z,95348.59
2022-07-26T16:07:14.829Z,95349.06
2022-07-26T16:10:17.495Z,95349.81
2022-07-26T16:13:20.989Z,95348.00
2022-07-26T16:16:23.845Z,95347.69
2022-07-26T16:19:25.647Z,95352.59
2022-07-26T16:22:27.380Z,95340.00
2022-07-26T16:25:29.047Z,95343.34
2022-07-26T16:28:32.085Z,95342.31
2022-07-26T16:31:33.914Z,95343.44
2022-07-26T16:34:35.716Z,95339.50
2022-07-26T16:37:37.421Z,95346.97
2022-07-26T16:40:39.129Z,95343.25
2022-07-26T16:43:42.254Z,95351.97
2022-07-26T16:46:44.139Z,95355.97
2022-07-26T16:49:46.476Z,95353.03
2022-07-26T16:52:48.126Z,95357.78
2022-07-26T16:55:49.893Z,95353.72
2022-07-26T16:58:52.923Z,95357.31
2022-07-26T17:01:54.887Z,95358.63
2022-07-26T17:04:56.569Z,95353.97
2022-07-26T17:07:58.406Z,95353.22
2022-07-26T17:11:00.905Z,95351.94
2022-07-26T17:14:04.029Z,95357.03
2022-07-26T17:17:05.736Z,95357.84
2022-07-26T17:20:08.181Z,95352.81
2022-07-26T17:23:09.906Z,95355.59
2022-07-26T17:26:11.779Z,95355.25
2022-07-26T17:29:14.935Z,95349.81
2022-07-26T17:32:17.121Z,95351.19
2022-07-26T17:35:18.860Z,95351.91
2022-07-26T17:38:20.687Z,95350.34
2022-07-26T17:41:26.178Z,95355.97
2022-07-26T17:44:36.221Z,95359.59
2022-07-26T17:47:37.901Z,95355.19
2022-07-26T17:50:39.677Z,95356.34
2022-07-26T17:53:41.411Z,95347.91
2022-07-26T17:56:43.108Z,95347.94
2022-07-26T17:59:46.231Z,95351.63
2022-07-26T18:02:48.429Z,95350.06
2022-07-26T18:05:50.193Z,95347.09
2022-07-26T18:08:51.925Z,95343.47
2022-07-26T18:11:53.586Z,95349.25
2022-07-26T18:14:56.711Z,95354.44
2022-07-26T18:17:58.551Z,95360.38
2022-07-26T18:21:00.338Z,95360.28
2022-07-26T18:24:16.492Z,95356.44
2022-07-26T18:27:19.303Z,95351.69
2022-07-26T18:30:22.512Z,95344.25
2022-07-26T18:33:24.208Z,95351.13
2022-07-26T18:36:28.286Z,95346.38
2022-07-26T18:39:32.606Z,95342.84
2022-07-26T18:42:34.934Z,95348.19
2022-07-26T18:45:38.006Z,95342.50
2022-07-26T18:48:41.854Z,95342.59
2022-07-26T18:51:44.822Z,95341.06
2022-07-26T18:54:50.250Z,95345.34
2022-07-26T18:57:53.669Z,95350.53
2022-07-26T19:01:07.983Z,95357.66
2022-07-26T19:04:11.174Z,95360.84
2022-07-26T19:07:12.971Z,95370.97
2022-07-26T19:10:14.720Z,95374.81
2022-07-26T19:13:16.446Z,95370.09
2022-07-26T19:16:18.198Z,95381.72
2022-07-26T19:19:22.766Z,95383.25
2022-07-26T19:22:25.929Z,95376.03
2022-07-26T19:25:27.754Z,95381.88
2022-07-26T19:28:29.462Z,95380.53
2022-07-26T19:31:31.240Z,95380.19
2022-07-26T19:34:34.717Z,95379.88
2022-07-26T19:37:36.488Z,95382.22
2022-07-26T19:40:38.243Z,95375.50
2022-07-26T19:43:39.961Z,95369.53
2022-07-26T19:46:42.930Z,95375.78
2022-07-26T19:49:46.066Z,95379.94
2022-07-26T19:52:47.863Z,95377.19
2022-07-26T19:55:49.592Z,95383.47
2022-07-26T19:58:51.453Z,95377.97
2022-07-26T20:01:53.219Z,95381.66
2022-07-26T20:04:58.744Z,95372.78
2022-07-26T20:08:00.451Z,95376.66
2022-07-26T20:11:02.211Z,95374.47
2022-07-26T20:14:03.920Z,95383.50
2022-07-26T20:17:11.912Z,95373.41
2022-07-26T20:20:16.549Z,95371.72
2022-07-26T20:23:18.213Z,95376.16
2022-07-26T20:26:20.552Z,95378.94
2022-07-26T20:29:22.348Z,95381.19
2022-07-26T20:32:24.099Z,95384.56
2022-07-26T20:35:27.155Z,95387.91
2022-07-26T20:38:28.813Z,95389.59
2022-07-26T20:41:33.811Z,95393.56
2022-07-26T20:44:35.842Z,95385.16
2022-07-26T20:47:41.201Z,95387.47
2022-07-26T20:50:44.294Z,95393.88
2022-07-26T20:53:45.977Z,95392.66
2022-07-26T20:56:47.840Z,95388.84
2022-07-26T20:59:49.619Z,95380.72
2022-07-26T21:02:51.409Z,95380.84
2022-07-26T21:05:54.619Z,95387.13
2022-07-26T21:08:56.324Z,95391.41
2022-07-26T21:11:58.037Z,95390.03
2022-07-26T21:14:59.774Z,95393.53
2022-07-26T21:18:01.473Z,95393.06
2022-07-26T21:21:04.861Z,95392.91
2022-07-26T21:24:06.979Z,95391.09
2022-07-26T21:27:08.649Z,95394.16
2022-07-26T21:30:12.014Z,95396.59
2022-07-26T21:33:13.699Z,95399.66
2022-07-26T21:36:16.750Z,95390.78
2022-07-26T21:39:18.742Z,95392.00
2022-07-26T21:42:20.506Z,95394.28
2022-07-26T21:45:22.208Z,95391.50
2022-07-26T21:48:23.871Z,95386.94
2022-07-26T21:51:26.932Z,95386.44
2022-07-26T21:54:29.668Z,95398.16
2022-07-26T21:57:31.344Z,95401.09
2022-07-26T22:00:33.205Z,95398.31
2022-07-26T22:03:35.769Z,95400.09
2022-07-26T22:06:38.915Z,95405.56
2022-07-26T22:09:40.619Z,95393.25
2022-07-26T22:12:42.258Z,95387.41
2022-07-26T22:15:43.951Z,95377.78
2022-07-26T22:18:45.668Z,95383.50
2022-07-26T22:21:48.720Z,95385.59
2022-07-26T22:24:50.429Z,95390.97
2022-07-26T22:27:52.063Z,95380.88
2022-07-26T22:30:53.836Z,95368.97
2022-07-26T22:33:55.479Z,95379.47
2022-07-26T22:36:58.538Z,95391.53
2022-07-26T22:40:00.295Z,95384.53
2022-07-26T22:43:02.296Z,95383.91
2022-07-26T22:46:04.527Z,95390.75
2022-07-26T22:49:06.599Z,95395.28
2022-07-26T22:52:15.397Z,95395.56
2022-07-26T22:55:17.093Z,95388.13
2022-07-26T22:58:19.121Z,95383.84
2022-07-26T23:01:20.841Z,95383.81
2022-07-26T23:04:22.618Z,95392.63
2022-07-26T23:07:25.836Z,95390.47
2022-07-26T23:10:27.521Z,95386.66
2022-07-26T23:13:29.288Z,95377.78
2022-07-26T23:16:31.442Z,95371.06
2022-07-26T23:19:33.360Z,95375.53
2022-07-26T23:22:36.401Z,95369.03
2022-07-26T23:25:38.064Z,95360.84
2022-07-26T23:28:39.787Z,95353.53
2022-07-26T23:31:41.454Z,95352.94
2022-07-26T23:34:43.210Z,95359.28
2022-07-26T23:37:46.278Z,95359.66
2022-07-26T23:40:48.035Z,95354.13
2022-07-26T23:43:49.812Z,95357.03
2022-07-26T23:46:51.523Z,95356.75
2022-07-26T23:49:53.246Z,95357.34
2022-07-26T23:52:56.312Z,95365.13
2022-07-26T23:55:58.274Z,95366.94
2022-07-26T23:58:59.963Z,95371.34
